Time;durP1;ratioP1;P1;durP2;ratioP2;P2;SDS_P1;SDS_P2;PMS_P1;PMS_P2;Temp;Humidity;BMP_temperature;BMP_pressure;BME280_temperature;BME280_humidity;BME280_pressure;Samples;Min_cycle;Max_cycle;Signal;HPM_P1;HPM_P2
2021/07/22 00:01:48;;;;;;;15.52;8.13;;;;;;;20.10;54.69;96479.63;5054310;28;20108;-72
2021/07/22 00:04:13;;;;;;;13.45;7.38;;;;;;;20.03;54.65;96477.44;5054266;28;20028;-69
2021/07/22 00:06:39;;;;;;;10.18;7.78;;;;;;;19.98;54.50;96476.91;5054104;28;20029;-72
2021/07/22 00:09:05;;;;;;;13.77;7.95;;;;;;;20.03;54.32;96479.22;5054057;28;20029;-70
2021/07/22 00:11:31;;;;;;;13.75;7.80;;;;;;;20.04;54.56;96476.47;5054139;28;20028;-68
2021/07/22 00:13:56;;;;;;;12.13;7.60;;;;;;;19.93;54.50;96479.09;5054186;28;20021;-69
2021/07/22 00:16:22;;;;;;;10.52;7.70;;;;;;;19.97;54.71;96479.66;5054014;28;20031;-69
2021/07/22 00:18:48;;;;;;;13.95;7.07;;;;;;;19.93;54.63;96482.56;5053859;28;20075;-69
2021/07/22 00:21:13;;;;;;;9.45;6.95;;;;;;;19.91;54.50;96481.00;5053850;28;20037;-71
2021/07/22 00:23:39;;;;;;;14.63;7.78;;;;;;;19.83;54.86;96474.47;5053943;28;20079;-73
2021/07/22 00:26:05;;;;;;;14.63;8.52;;;;;;;19.78;55.24;96473.97;5053851;28;20029;-71
2021/07/22 00:28:31;;;;;;;14.88;7.82;;;;;;;19.82;55.15;96469.28;5053827;28;20544;-72
2021/07/22 00:30:57;;;;;;;13.02;8.30;;;;;;;19.77;55.37;96466.97;5053827;28;20025;-72
2021/07/22 00:33:23;;;;;;;15.50;7.78;;;;;;;19.74;55.69;96467.22;5053842;28;20060;-71
2021/07/22 00:35:49;;;;;;;13.02;8.00;;;;;;;19.76;55.75;96470.59;5053624;28;20422;-69
2021/07/22 00:38:15;;;;;;;15.45;9.32;;;;;;;19.79;55.84;96461.56;5053719;28;20039;-69
2021/07/22 00:40:47;;;;;;;12.88;7.85;;;;;;;19.69;56.52;96461.44;5053676;28;20043;-68
2021/07/22 00:43:13;;;;;;;10.70;7.35;;;;;;;19.65;55.90;96466.13;5053376;28;20094;-70
2021/07/22 00:45:38;;;;;;;12.35;7.68;;;;;;;19.67;56.04;96479.25;5053517;28;20491;-71
2021/07/22 00:48:04;;;;;;;12.82;7.93;;;;;;;19.62;55.58;96473.47;5053422;28;20379;-71
2021/07/22 00:50:31;;;;;;;16.48;9.10;;;;;;;19.53;56.34;96465.25;5053476;28;20072;-72
2021/07/22 00:53:00;;;;;;;11.40;8.05;;;;;;;19.46;56.28;96477.28;5053175;28;20403;-70
2021/07/22 00:55:29;;;;;;;11.98;8.25;;;;;;;19.42;56.79;96481.13;5053266;28;20025;-71
2021/07/22 00:57:55;;;;;;;12.85;8.52;;;;;;;19.33;56.53;96480.00;5053364;28;20025;-69
2021/07/22 01:00:21;;;;;;;13.73;7.00;;;;;;;19.32;56.75;96479.16;5053222;28;20017;-69
2021/07/22 01:02:46;;;;;;;12.95;7.88;;;;;;;19.30;56.94;96478.41;5053246;28;20025;-70
2021/07/22 01:05:12;;;;;;;15.00;8.48;;;;;;;19.29;56.97;96486.47;5053071;28;20033;-70
2021/07/22 01:07:37;;;;;;;15.70;9.05;;;;;;;19.27;57.17;96485.78;5053061;28;20574;-71
2021/07/22 01:10:05;;;;;;;10.50;7.97;;;;;;;19.22;57.53;96487.91;5053229;28;20024;-69
2021/07/22 01:12:31;;;;;;;12.40;7.80;;;;;;;19.21;57.15;96491.53;5051821;28;20108;-69
2021/07/22 01:14:57;;;;;;;13.52;7.90;;;;;;;19.15;57.36;96496.31;5053337;28;20021;-69
2021/07/22 01:17:45;;;;;;;13.65;8.55;;;;;;;19.17;57.53;96491.75;5053131;28;20028;-71
2021/07/22 01:20:24;;;;;;;12.90;7.45;;;;;;;19.19;57.32;96492.50;5053034;28;20063;-71
2021/07/22 01:22:54;;;;;;;10.65;7.43;;;;;;;19.25;57.18;96496.50;5053015;28;20286;-69
2021/07/22 01:25:21;;;;;;;11.88;7.20;;;;;;;19.23;56.92;96498.41;5052945;28;20025;-68
2021/07/22 01:27:48;;;;;;;12.15;8.50;;;;;;;19.24;57.05;96491.28;5053053;28;20029;-70
2021/07/22 01:30:15;;;;;;;11.80;7.72;;;;;;;19.15;57.65;96495.47;5052819;28;20024;-71
2021/07/22 01:32:41;;;;;;;10.57;7.38;;;;;;;19.15;57.24;96498.94;5052880;28;20017;-71
2021/07/22 01:35:08;;;;;;;10.43;7.10;;;;;;;19.05;57.19;96488.16;5052895;28;20028;-70
2021/07/22 01:37:34;;;;;;;13.27;7.95;;;;;;;18.99;57.58;96501.03;5052814;28;20029;-69
2021/07/22 01:40:00;;;;;;;12.68;7.53;;;;;;;18.96;57.91;96501.25;5052805;28;20033;-72
2021/07/22 01:42:26;;;;;;;10.60;7.30;;;;;;;18.92;57.91;96501.47;5052768;28;20497;-71
2021/07/22 01:44:51;;;;;;;9.25;6.68;;;;;;;18.94;58.69;96494.25;5052693;28;20029;-72
2021/07/22 01:47:17;;;;;;;12.32;7.53;;;;;;;18.86;57.88;96498.41;5052702;28;20111;-71
2021/07/22 01:49:43;;;;;;;15.65;7.18;;;;;;;18.86;58.28;96501.91;5052829;28;20033;-70
2021/07/22 01:52:08;;;;;;;14.88;9.10;;;;;;;18.92;58.13;96497.97;5052474;28;20025;-71
2021/07/22 01:54:34;;;;;;;13.38;7.13;;;;;;;18.91;58.63;96502.41;5052704;28;20356;-69
2021/07/22 01:57:01;;;;;;;9.65;7.28;;;;;;;18.90;58.35;96513.97;5052694;28;20082;-70
2021/07/22 01:59:35;;;;;;;12.43;7.90;;;;;;;18.89;58.25;96511.44;5052663;28;20111;-69
2021/07/22 02:02:05;;;;;;;11.45;7.22;;;;;;;18.81;58.49;96509.34;5052872;28;20379;-71
2021/07/22 02:04:31;;;;;;;17.40;7.63;;;;;;;18.80;58.14;96512.94;5052852;28;20025;-73
2021/07/22 02:06:57;;;;;;;12.30;6.88;;;;;;;18.78;58.36;96520.19;5054102;28;20024;-71
2021/07/22 02:09:23;;;;;;;11.40;7.05;;;;;;;18.87;58.25;96513.38;5056463;28;20391;-71
2021/07/22 02:11:49;;;;;;;12.38;7.32;;;;;;;18.83;58.36;96523.34;5056339;28;20410;-72
2021/07/22 02:14:15;;;;;;;10.77;7.18;;;;;;;18.80;58.30;96523.53;5056413;28;20383;-73
2021/07/22 02:16:40;;;;;;;10.45;6.97;;;;;;;18.80;58.29;96527.06;5056399;28;20035;-73
2021/07/22 02:19:06;;;;;;;9.27;7.13;;;;;;;18.86;58.34;96530.19;5056106;28;20564;-71
2021/07/22 02:21:32;;;;;;;12.75;7.18;;;;;;;18.94;57.82;96530.50;5056341;28;20025;-69
2021/07/22 02:23:57;;;;;;;12.02;7.97;;;;;;;18.98;57.79;96533.78;5056140;28;20470;-73
2021/07/22 02:26:23;;;;;;;9.55;6.75;;;;;;;19.01;57.58;96529.09;5056099;28;20036;-71
2021/07/22 02:28:51;;;;;;;10.18;6.32;;;;;;;18.98;58.09;96531.97;5056177;28;20155;-71
2021/07/22 02:31:16;;;;;;;11.75;6.53;;;;;;;18.97;57.88;96526.78;5056014;28;20025;-72
2021/07/22 02:33:42;;;;;;;23.77;7.82;;;;;;;18.98;58.38;96531.97;5055905;28;20029;-72
2021/07/22 02:36:08;;;;;;;10.85;7.25;;;;;;;18.92;57.79;96530.63;5055906;28;20029;-71
2021/07/22 02:38:34;;;;;;;10.45;7.53;;;;;;;18.86;58.29;96532.84;5055921;28;20028;-70
2021/07/22 02:40:59;;;;;;;11.48;6.80;;;;;;;18.91;58.68;96530.72;5055903;28;20560;-71
2021/07/22 02:43:25;;;;;;;10.63;7.00;;;;;;;18.89;59.04;96535.28;5055760;28;20033;-70
2021/07/22 02:45:50;;;;;;;11.40;6.82;;;;;;;18.75;59.82;96525.69;5055627;28;20116;-70
2021/07/22 02:48:16;;;;;;;12.40;7.25;;;;;;;18.71;59.37;96532.16;5055775;28;20048;-70
2021/07/22 02:50:42;;;;;;;11.10;6.47;;;;;;;18.63;59.76;96524.78;5055704;28;20340;-75
2021/07/22 02:53:08;;;;;;;10.68;6.80;;;;;;;18.63;59.37;96532.72;5055321;28;20037;-69
2021/07/22 02:55:34;;;;;;;9.40;6.10;;;;;;;18.58;59.85;96530.41;5055627;28;20025;-69
2021/07/22 02:58:06;;;;;;;9.38;6.55;;;;;;;18.58;59.21;96535.69;5055414;28;20028;-73
2021/07/22 03:00:32;;;;;;;12.38;7.00;;;;;;;18.65;59.40;96536.94;5055611;28;20021;-71
2021/07/22 03:03:01;;;;;;;10.40;7.30;;;;;;;18.74;58.92;96534.56;5055441;28;20486;-72
2021/07/22 03:05:30;;;;;;;8.82;6.78;;;;;;;18.74;58.78;96535.44;5055300;28;20452;-72
2021/07/22 03:07:58;;;;;;;10.52;6.70;;;;;;;18.76;59.20;96546.78;5055309;28;20017;-70
2021/07/22 03:10:24;;;;;;;10.98;6.93;;;;;;;18.76;58.86;96543.28;5055279;28;20075;-70
2021/07/22 03:12:50;;;;;;;9.77;7.57;;;;;;;18.79;58.94;96545.72;5055321;28;20029;-70
2021/07/22 03:15:16;;;;;;;10.25;5.95;;;;;;;18.66;59.31;96543.91;5055226;28;20035;-71
2021/07/22 03:17:41;;;;;;;13.85;7.20;;;;;;;18.60;59.38;96535.59;5054351;28;20053;-73
2021/07/22 03:20:07;;;;;;;14.30;6.75;;;;;;;18.65;59.14;96555.47;5054771;28;20355;-71
2021/07/22 03:22:33;;;;;;;8.60;6.28;;;;;;;18.71;59.34;96553.34;5055086;28;20075;-73
2021/07/22 03:24:58;;;;;;;10.60;6.97;;;;;;;18.73;59.43;96556.75;5055054;28;20519;-73
2021/07/22 03:27:24;;;;;;;10.57;7.30;;;;;;;18.66;59.27;96549.22;5054962;28;20403;-71
2021/07/22 03:29:49;;;;;;;9.98;6.82;;;;;;;18.71;59.24;96556.00;5054884;28;20043;-72
2021/07/22 03:32:15;;;;;;;9.40;6.63;;;;;;;18.66;59.15;96561.63;5054832;28;20021;-71
2021/07/22 03:34:40;;;;;;;8.18;6.47;;;;;;;18.64;59.01;96561.75;5054994;28;20021;-73
2021/07/22 03:37:06;;;;;;;10.32;5.80;;;;;;;18.72;58.95;96561.19;5054724;28;20024;-72
2021/07/22 03:39:31;;;;;;;10.80;6.40;;;;;;;18.74;59.24;96555.78;5054915;28;20028;-72
2021/07/22 03:41:57;;;;;;;7.28;5.80;;;;;;;18.77;58.41;96566.16;5054631;28;20421;-73
2021/07/22 03:44:23;;;;;;;7.72;5.80;;;;;;;18.84;58.52;96561.28;5054615;28;20067;-69
2021/07/22 03:46:48;;;;;;;7.35;5.78;;;;;;;18.91;58.34;96568.66;5054650;28;20187;-73
2021/07/22 03:49:14;;;;;;;8.02;5.68;;;;;;;19.18;57.30;96570.31;5054527;28;20040;-70
2021/07/22 03:51:39;;;;;;;8.20;6.10;;;;;;;19.48;56.81;96570.84;5054523;28;20112;-71
2021/07/22 03:54:05;;;;;;;10.30;6.97;;;;;;;19.93;55.69;96571.97;5054220;28;20041;-70
2021/07/22 03:56:33;;;;;;;9.88;5.55;;;;;;;20.31;54.04;96570.00;5054400;28;20021;-72
2021/07/22 03:58:59;;;;;;;7.22;4.95;;;;;;;20.66;53.23;96566.44;5054504;28;20044;-69
2021/07/22 04:01:24;;;;;;;15.57;5.68;;;;;;;21.08;52.49;96576.44;5054410;28;20102;-70
2021/07/22 04:03:50;;;;;;;9.23;5.15;;;;;;;21.46;51.81;96581.41;5054351;28;20475;-71
2021/07/22 04:06:16;;;;;;;9.00;5.15;;;;;;;21.83;50.07;96581.06;5054155;28;20040;-69
2021/07/22 04:08:41;;;;;;;9.32;5.43;;;;;;;22.06;49.12;96580.09;5054225;28;20021;-68
2021/07/22 04:11:07;;;;;;;8.52;5.75;;;;;;;22.38;48.78;96573.88;5054118;28;20036;-70
2021/07/22 04:13:33;;;;;;;7.20;4.70;;;;;;;22.55;47.86;96572.41;5054212;28;20013;-70
2021/07/22 04:16:05;;;;;;;6.55;5.28;;;;;;;22.75;47.86;96582.34;5054172;28;20029;-70
2021/07/22 04:18:31;;;;;;;10.75;5.90;;;;;;;23.04;47.61;96586.94;5053963;28;20021;-69
2021/07/22 04:20:59;;;;;;;8.30;5.32;;;;;;;23.25;46.98;96589.53;5053847;28;20383;-69
2021/07/22 04:23:25;;;;;;;7.43;5.45;;;;;;;23.61;46.49;96594.38;5053870;28;20032;-69
2021/07/22 04:25:51;;;;;;;8.48;5.35;;;;;;;23.89;45.47;96594.53;5053899;28;20418;-70
2021/07/22 04:28:16;;;;;;;7.78;5.88;;;;;;;24.11;45.39;96592.56;5053904;28;20079;-69
2021/07/22 04:30:42;;;;;;;8.38;5.15;;;;;;;24.13;44.93;96597.72;5053465;28;20021;-71
2021/07/22 04:33:08;;;;;;;8.77;5.00;;;;;;;23.97;45.65;96602.69;5053788;28;20551;-70
2021/07/22 04:35:33;;;;;;;8.40;5.40;;;;;;;24.13;45.12;96605.75;5053698;28;20029;-71
2021/07/22 04:38:00;;;;;;;9.20;5.07;;;;;;;24.28;44.36;96598.16;5053744;28;20529;-70
2021/07/22 04:40:25;;;;;;;10.13;5.53;;;;;;;24.28;44.74;96600.81;5053599;28;20104;-69
2021/07/22 04:42:51;;;;;;;7.20;5.40;;;;;;;24.36;44.22;96603.66;5053532;28;20096;-69
2021/07/22 04:45:16;;;;;;;7.28;5.07;;;;;;;24.68;44.75;96594.41;5053512;28;20017;-69
2021/07/22 04:47:43;;;;;;;9.13;5.40;;;;;;;25.17;44.15;96598.75;5053389;28;20045;-70
2021/07/22 04:50:09;;;;;;;5.68;4.57;;;;;;;25.62;44.27;96604.25;5053373;28;20035;-68
2021/07/22 04:52:34;;;;;;;8.85;5.85;;;;;;;26.04;43.48;96608.16;5053051;28;20080;-69
2021/07/22 04:55:00;;;;;;;8.57;5.05;;;;;;;26.10;40.70;96602.16;5053291;28;20029;-68
2021/07/22 04:57:26;;;;;;;7.90;5.30;;;;;;;26.14;39.96;96605.38;5053375;28;20021;-70
2021/07/22 04:59:51;;;;;;;6.63;4.65;;;;;;;26.21;40.86;96608.28;5053327;28;20112;-69
2021/07/22 05:02:19;;;;;;;7.25;5.35;;;;;;;25.89;41.32;96610.53;5053350;28;20502;-71
2021/07/22 05:04:45;;;;;;;8.90;5.88;;;;;;;25.67;41.29;96617.19;5053505;28;20422;-70
2021/07/22 05:07:13;;;;;;;6.00;5.10;;;;;;;25.51;42.04;96617.81;5053110;28;20029;-69
2021/07/22 05:09:39;;;;;;;8.63;5.13;;;;;;;25.31;42.88;96618.78;5053277;28;20032;-72
2021/07/22 05:12:09;;;;;;;7.45;5.57;;;;;;;25.05;43.56;96611.47;5051965;28;20025;-70
2021/07/22 05:14:35;;;;;;;7.40;5.63;;;;;;;24.94;44.25;96617.00;5053295;28;20033;-70
2021/07/22 05:17:01;;;;;;;11.98;5.60;;;;;;;24.80;44.42;96618.31;5053099;28;20025;-72
2021/07/22 05:19:26;;;;;;;8.25;5.47;;;;;;;24.75;43.84;96616.06;5053041;28;20025;-71
2021/07/22 05:21:52;;;;;;;6.72;5.10;;;;;;;24.65;44.67;96616.06;5053062;28;20013;-69
2021/07/22 05:24:17;;;;;;;11.05;5.22;;;;;;;24.42;44.99;96616.44;5053081;28;20036;-70
2021/07/22 05:26:43;;;;;;;7.45;5.18;;;;;;;24.46;43.81;96619.66;5053002;28;20116;-69
2021/07/22 05:29:09;;;;;;;8.43;5.35;;;;;;;24.52;44.56;96621.75;5052986;28;20025;-70
2021/07/22 05:31:39;;;;;;;7.07;5.68;;;;;;;24.47;45.18;96616.84;5052929;28;20143;-71
2021/07/22 05:34:04;;;;;;;7.25;5.60;;;;;;;24.11;46.21;96627.28;5052878;28;20018;-72
2021/07/22 05:36:30;;;;;;;7.97;6.07;;;;;;;23.82;45.75;96625.44;5052909;28;20029;-69
2021/07/22 05:38:56;;;;;;;7.78;5.65;;;;;;;23.58;47.71;96627.53;5052805;28;20021;-71
2021/07/22 05:41:21;;;;;;;11.15;5.88;;;;;;;23.46;47.11;96616.16;5053674;28;20094;-72
2021/07/22 05:43:48;;;;;;;9.63;5.28;;;;;;;23.48;46.80;96629.34;5056976;28;20100;-71
2021/07/22 05:46:19;;;;;;;7.07;5.07;;;;;;;23.50;46.66;96626.53;5056771;28;20025;-72
2021/07/22 05:48:44;;;;;;;8.85;5.97;;;;;;;23.50;49.12;96631.88;5056985;28;20036;-68
2021/07/22 05:51:10;;;;;;;7.75;5.53;;;;;;;23.62;48.59;96636.09;5056789;28;20021;-71
2021/07/22 05:53:36;;;;;;;5.68;5.13;;;;;;;23.73;49.32;96638.66;5056613;28;20453;-68
2021/07/22 05:56:01;;;;;;;11.32;5.63;;;;;;;23.96;47.41;96641.03;5056659;28;20074;-70
2021/07/22 05:58:27;;;;;;;8.80;5.18;;;;;;;24.29;46.89;96643.44;5056621;28;20060;-69
2021/07/22 06:00:53;;;;;;;7.40;5.13;;;;;;;24.93;44.93;96634.91;5056688;28;20021;-69
2021/07/22 06:03:19;;;;;;;8.60;5.32;;;;;;;25.30;44.14;96643.03;5056678;28;20079;-69
2021/07/22 06:05:45;;;;;;;7.10;5.45;;;;;;;25.46;43.46;96642.34;5056608;28;20475;-71
2021/07/22 06:08:11;;;;;;;7.05;5.28;;;;;;;25.87;43.01;96642.00;5056549;28;20025;-68
2021/07/22 06:10:39;;;;;;;6.18;4.95;;;;;;;25.90;42.55;96646.19;5056391;28;20490;-71
2021/07/22 06:13:05;;;;;;;8.05;5.05;;;;;;;25.75;42.94;96644.06;5056367;28;20506;-69
2021/07/22 06:15:30;;;;;;;9.65;4.88;;;;;;;25.53;42.85;96634.59;5056476;28;20025;-70
2021/07/22 06:17:56;;;;;;;6.18;5.43;;;;;;;25.14;43.00;96649.88;5056524;28;20025;-72
2021/07/22 06:20:22;;;;;;;7.47;4.55;;;;;;;24.74;42.57;96649.97;5056330;28;20029;-70
2021/07/22 06:22:47;;;;;;;10.75;5.38;;;;;;;24.59;45.16;96648.75;5056254;28;20074;-72
2021/07/22 06:25:14;;;;;;;6.95;5.25;;;;;;;24.48;44.46;96650.59;5056169;28;20017;-69
2021/07/22 06:27:41;;;;;;;7.20;5.20;;;;;;;24.44;45.00;96645.69;5056104;28;20452;-72
2021/07/22 06:30:07;;;;;;;8.55;5.07;;;;;;;24.69;44.99;96641.56;5056089;28;20025;-70
2021/07/22 06:32:33;;;;;;;8.05;5.28;;;;;;;24.76;45.23;96647.16;5055975;28;20383;-69
2021/07/22 06:34:59;;;;;;;6.30;4.90;;;;;;;24.97;44.55;96640.78;5056017;28;20017;-70
2021/07/22 06:37:24;;;;;;;6.82;4.93;;;;;;;24.78;44.04;96645.19;5055942;28;20021;-69
2021/07/22 06:39:50;;;;;;;7.35;4.97;;;;;;;24.38;43.94;96643.59;5055954;28;20119;-73
2021/07/22 06:42:15;;;;;;;6.82;5.07;;;;;;;24.05;45.83;96646.53;5055837;28;20024;-71
2021/07/22 06:44:41;;;;;;;5.75;4.68;;;;;;;23.87;45.64;96647.22;5055823;28;20055;-71
2021/07/22 06:47:07;;;;;;;7.47;4.68;;;;;;;24.32;46.30;96647.69;5055557;28;20104;-71
2021/07/22 06:49:32;;;;;;;6.43;5.03;;;;;;;25.04;44.48;96633.84;5055682;28;20427;-70
2021/07/22 06:52:01;;;;;;;7.30;5.13;;;;;;;25.91;43.11;96642.53;5055426;28;20021;-69
2021/07/22 06:54:27;;;;;;;7.32;4.25;;;;;;;26.57;40.65;96651.13;5055728;28;20032;-69
2021/07/22 06:56:53;;;;;;;5.35;4.40;;;;;;;26.83;39.68;96644.09;5055528;28;20391;-68
2021/07/22 06:59:18;;;;;;;6.30;4.28;;;;;;;26.65;40.19;96636.09;5055518;28;20024;-72
2021/07/22 07:01:44;;;;;;;7.55;4.93;;;;;;;26.58;40.08;96647.44;5055477;28;20482;-72
2021/07/22 07:04:09;;;;;;;5.45;4.15;;;;;;;26.43;39.90;96643.66;5055528;28;20406;-70
2021/07/22 07:06:36;;;;;;;5.45;4.60;;;;;;;26.18;41.37;96652.31;5055369;28;20033;-70
2021/07/22 07:09:05;;;;;;;7.25;4.05;;;;;;;26.14;43.30;96639.38;5055361;28;20056;-72
2021/07/22 07:11:31;;;;;;;5.75;4.35;;;;;;;26.06;41.91;96635.63;5055226;28;20039;-71
2021/07/22 07:13:57;;;;;;;9.75;4.18;;;;;;;26.45;40.43;96630.94;5055448;28;20013;-70
2021/07/22 07:16:23;;;;;;;5.25;3.67;;;;;;;26.37;40.37;96624.50;5055166;28;20078;-72
2021/07/22 07:18:48;;;;;;;8.00;3.83;;;;;;;26.74;40.03;96627.09;5055117;28;20544;-70
2021/07/22 07:21:14;;;;;;;5.32;4.05;;;;;;;27.19;39.37;96629.69;5055135;28;20029;-69
2021/07/22 07:23:40;;;;;;;5.75;4.10;;;;;;;27.62;38.58;96625.13;5055116;28;20025;-72
2021/07/22 07:26:10;;;;;;;5.68;3.83;;;;;;;27.79;37.77;96635.09;5054868;28;20043;-69
2021/07/22 07:28:37;;;;;;;6.80;4.30;;;;;;;28.23;37.00;96642.88;5054908;28;20044;-69
2021/07/22 07:31:03;;;;;;;4.28;3.28;;;;;;;28.20;34.95;96637.81;5055037;28;20021;-70
2021/07/22 07:33:29;;;;;;;3.67;2.83;;;;;;;28.08;35.14;96640.00;5054973;28;20049;-69
2021/07/22 07:35:56;;;;;;;3.50;2.92;;;;;;;28.32;34.40;96637.53;5054771;28;20080;-70
2021/07/22 07:38:22;;;;;;;6.95;3.72;;;;;;;27.71;37.83;96636.78;5054795;28;20529;-69
2021/07/22 07:40:47;;;;;;;3.55;3.10;;;;;;;27.86;36.08;96636.13;5054714;28;20021;-71
2021/07/22 07:43:19;;;;;;;7.28;3.42;;;;;;;27.90;36.06;96639.31;5054791;28;20108;-73
2021/07/22 07:45:44;;;;;;;4.18;3.25;;;;;;;27.32;36.01;96639.97;5054527;28;20143;-71
2021/07/22 07:48:10;;;;;;;5.32;3.25;;;;;;;27.40;39.42;96642.69;5054623;28;20442;-71
2021/07/22 07:50:36;;;;;;;7.63;2.90;;;;;;;27.89;35.92;96635.78;5054618;28;20013;-72
2021/07/22 07:53:16;;;;;;;3.20;2.90;;;;;;;27.45;35.77;96639.53;5054427;28;20040;-72
2021/07/22 07:55:43;;;;;;;3.58;2.90;;;;;;;27.17;38.41;96645.09;5054503;28;20529;-71
2021/07/22 07:58:09;;;;;;;3.50;3.15;;;;;;;27.06;38.00;96640.88;5054356;28;20028;-72
2021/07/22 08:00:36;;;;;;;4.22;2.90;;;;;;;27.09;36.25;96625.28;5054570;28;20052;-69
2021/07/22 08:03:02;;;;;;;4.30;2.80;;;;;;;27.18;37.32;96638.75;5054430;28;20024;-73
2021/07/22 08:05:28;;;;;;;4.38;2.53;;;;;;;26.65;35.01;96636.09;5053624;28;20096;-69
2021/07/22 08:07:54;;;;;;;5.53;2.83;;;;;;;26.49;37.16;96635.81;5054246;28;20025;-69
2021/07/22 08:10:20;;;;;;;6.03;3.08;;;;;;;26.79;38.55;96632.00;5054086;28;20032;-70
2021/07/22 08:12:46;;;;;;;6.40;3.30;;;;;;;27.21;37.19;96633.88;5054184;28;20029;-70
2021/07/22 08:15:13;;;;;;;3.78;2.60;;;;;;;27.42;35.14;96637.16;5054086;28;20063;-73
2021/07/22 08:17:39;;;;;;;5.00;2.30;;;;;;;27.48;34.24;96629.28;5054111;28;20144;-71
2021/07/22 08:20:06;;;;;;;3.70;2.22;;;;;;;27.19;36.76;96638.59;5054043;28;20397;-70
2021/07/22 08:22:35;;;;;;;4.53;2.63;;;;;;;27.62;37.10;96638.56;5053954;28;20025;-69
2021/07/22 08:25:01;;;;;;;4.00;2.53;;;;;;;27.44;35.34;96638.69;5053861;28;20035;-71
2021/07/22 08:27:31;;;;;;;3.55;2.63;;;;;;;27.19;34.60;96633.22;5053881;28;20544;-71
2021/07/22 08:29:58;;;;;;;3.60;2.65;;;;;;;27.47;37.93;96633.00;5054035;28;20116;-70
2021/07/22 08:32:25;;;;;;;2.58;2.35;;;;;;;27.75;34.47;96637.25;5053768;28;20025;-70
2021/07/22 08:34:51;;;;;;;3.00;2.30;;;;;;;27.24;35.16;96633.56;5053599;28;20025;-69
2021/07/22 08:37:16;;;;;;;5.45;2.60;;;;;;;27.06;36.59;96635.53;5053614;28;20028;-72
2021/07/22 08:39:45;;;;;;;3.38;2.75;;;;;;;27.62;36.20;96646.63;5053651;28;20025;-70
2021/07/22 08:42:12;;;;;;;3.92;2.80;;;;;;;27.75;35.54;96639.94;5053814;28;20086;-71
2021/07/22 08:44:40;;;;;;;2.97;2.40;;;;;;;28.17;38.22;96643.53;5053581;28;20024;-70
2021/07/22 08:47:09;;;;;;;5.63;2.63;;;;;;;28.48;34.20;96644.75;5053422;28;20029;-70
2021/07/22 08:49:37;;;;;;;2.83;2.05;;;;;;;27.55;33.95;96642.91;5053611;28;20021;-70
2021/07/22 08:52:12;;;;;;;3.45;2.15;;;;;;;27.41;35.80;96647.06;5053226;28;20025;-71
2021/07/22 08:54:39;;;;;;;3.67;2.53;;;;;;;27.28;36.25;96646.66;5053517;28;20483;-69
2021/07/22 08:57:10;;;;;;;4.68;2.90;;;;;;;26.90;35.57;96652.34;5053269;28;20487;-69
2021/07/22 08:59:36;;;;;;;5.45;3.13;;;;;;;26.78;36.74;96652.59;5053349;28;20021;-72
2021/07/22 09:02:03;;;;;;;15.52;7.82;;;;;;;26.71;38.25;96647.03;5053296;28;20091;-69
2021/07/22 09:04:30;;;;;;;8.82;5.10;;;;;;;26.73;38.91;96650.41;5053308;28;20102;-71
2021/07/22 09:06:56;;;;;;;8.00;3.50;;;;;;;26.64;38.85;96640.63;5053059;28;20429;-70
2021/07/22 09:09:22;;;;;;;8.60;5.95;;;;;;;26.64;39.36;96648.69;5053256;28;20047;-72
2021/07/22 09:12:01;;;;;;;3.17;2.88;;;;;;;26.49;37.26;96641.19;5053231;28;20025;-70
2021/07/22 09:14:29;;;;;;;4.18;2.90;;;;;;;26.51;39.35;96632.97;5053185;28;20032;-70
2021/07/22 09:16:56;;;;;;;5.03;2.90;;;;;;;26.39;39.33;96635.09;5052186;28;20017;-69
2021/07/22 09:19:32;;;;;;;5.72;3.10;;;;;;;26.33;39.15;96628.50;5053091;28;20032;-71
2021/07/22 09:21:58;;;;;;;3.63;2.45;;;;;;;26.28;39.75;96621.91;5053108;28;20479;-71
2021/07/22 09:24:23;;;;;;;3.80;2.65;;;;;;;26.60;38.42;96623.16;5053042;28;20079;-72
2021/07/22 09:26:53;;;;;;;3.53;2.60;;;;;;;27.10;38.86;96615.41;5052832;28;20417;-69
2021/07/22 09:29:19;;;;;;;2.60;2.20;;;;;;;27.78;35.96;96612.75;5052942;28;20082;-70
2021/07/22 09:31:46;;;;;;;5.72;2.42;;;;;;;27.70;34.48;96621.66;5052962;28;20094;-70
2021/07/22 09:34:30;;;;;;;4.75;2.63;;;;;;;27.26;35.88;96620.00;5052713;28;20021;-68
2021/07/22 09:37:07;;;;;;;3.17;2.28;;;;;;;26.82;36.87;96619.09;5052890;28;20418;-71
2021/07/22 09:39:36;;;;;;;7.85;2.60;;;;;;;26.61;38.54;96625.69;5052909;28;20082;-70
2021/07/22 09:42:05;;;;;;;2.10;1.90;;;;;;;26.43;38.83;96616.84;5052840;28;20378;-70
2021/07/22 09:44:36;;;;;;;3.80;2.45;;;;;;;26.33;38.31;96617.78;5052796;28;20042;-69
2021/07/22 09:47:09;;;;;;;3.05;2.40;;;;;;;26.62;38.24;96613.13;5052762;28;20021;-71
2021/07/22 09:49:34;;;;;;;2.85;2.42;;;;;;;26.97;36.76;96608.59;5052948;28;20037;-72
2021/07/22 09:52:03;;;;;;;4.93;2.28;;;;;;;27.36;36.23;96601.91;5052689;28;20021;-69
2021/07/22 09:54:34;;;;;;;4.22;2.35;;;;;;;27.27;36.35;96610.94;5052813;28;20025;-72
2021/07/22 09:57:02;;;;;;;3.08;2.42;;;;;;;27.37;36.95;96606.28;5052699;28;20040;-70
2021/07/22 09:59:29;;;;;;;3.17;2.55;;;;;;;27.46;34.69;96600.94;5052615;28;20178;-71
2021/07/22 10:01:59;;;;;;;3.85;2.45;;;;;;;27.46;35.67;96611.66;5052688;28;20037;-70
2021/07/22 10:04:27;;;;;;;4.03;1.95;;;;;;;27.21;34.48;96599.00;5052879;28;20021;-71
2021/07/22 10:06:54;;;;;;;2.85;2.15;;;;;;;27.04;36.73;96595.44;5052546;28;20459;-71
2021/07/22 10:09:23;;;;;;;6.40;2.17;;;;;;;27.08;36.33;96601.28;5052653;28;20447;-70
2021/07/22 10:11:49;;;;;;;2.47;2.10;;;;;;;26.72;36.75;96605.81;5052652;28;20096;-71
2021/07/22 10:14:18;;;;;;;5.47;2.30;;;;;;;26.62;37.46;96607.75;5052689;28;20013;-69
2021/07/22 10:16:47;;;;;;;4.40;2.53;;;;;;;26.58;38.98;96609.06;5052678;28;20029;-73
2021/07/22 10:19:14;;;;;;;4.65;2.70;;;;;;;26.51;36.79;96602.66;5052489;28;20025;-71
2021/07/22 10:21:39;;;;;;;2.90;2.25;;;;;;;26.34;37.50;96605.22;5052530;28;20045;-72
2021/07/22 10:24:07;;;;;;;3.08;2.33;;;;;;;26.16;37.85;96611.44;5052395;28;20059;-71
2021/07/22 10:26:39;;;;;;;3.03;2.55;;;;;;;26.20;39.17;96612.81;5052280;28;20028;-69
2021/07/22 10:29:05;;;;;;;4.65;2.40;;;;;;;26.24;39.24;96605.28;5055635;28;20399;-69
2021/07/22 10:31:32;;;;;;;4.65;2.35;;;;;;;26.18;37.95;96601.41;5056148;28;20021;-73
2021/07/22 10:33:58;;;;;;;2.97;2.28;;;;;;;26.00;38.53;96606.78;5056073;28;20497;-73
2021/07/22 10:36:24;;;;;;;4.50;2.40;;;;;;;25.90;37.93;96608.69;5056044;28;20120;-72
2021/07/22 10:38:50;;;;;;;3.05;2.25;;;;;;;26.04;38.32;96596.59;5055945;28;20052;-72
2021/07/22 10:41:35;;;;;;;2.72;2.45;;;;;;;25.95;38.83;96611.75;5055892;28;20039;-72
2021/07/22 10:44:02;;;;;;;4.15;2.58;;;;;;;25.92;39.73;96607.56;5055874;28;20079;-72
2021/07/22 10:46:55;;;;;;;5.25;2.67;;;;;;;25.87;37.31;96612.53;5055769;28;20025;-69
2021/07/22 10:49:36;;;;;;;5.28;2.47;;;;;;;25.71;40.18;96605.19;5055887;28;20028;-70
2021/07/22 10:52:02;;;;;;;3.28;2.50;;;;;;;25.82;41.49;96606.78;5055458;28;20059;-70
2021/07/22 10:54:51;;;;;;;2.97;2.10;;;;;;;26.40;39.29;96604.63;5055750;28;20052;-70
2021/07/22 10:57:38;;;;;;;2.42;2.10;;;;;;;26.44;37.54;96605.13;5055615;28;20090;-70
2021/07/22 11:00:09;;;;;;;7.78;3.10;;;;;;;25.92;39.66;96614.75;5055401;28;20028;-70
2021/07/22 11:02:43;;;;;;;3.13;2.47;;;;;;;25.64;40.21;96622.84;5055550;28;20033;-72
2021/07/22 11:05:10;;;;;;;5.03;2.60;;;;;;;25.25;40.97;96624.72;5055560;28;20025;-69
2021/07/22 11:07:36;;;;;;;3.92;2.63;;;;;;;25.01;40.54;96622.63;5055311;28;20521;-69
2021/07/22 11:10:03;;;;;;;3.78;2.70;;;;;;;24.97;42.07;96628.25;5055385;28;20041;-72
2021/07/22 11:12:46;;;;;;;4.60;2.40;;;;;;;24.84;42.36;96619.69;5055410;28;20028;-72
2021/07/22 11:15:16;;;;;;;8.43;3.05;;;;;;;24.45;42.23;96629.53;5055347;28;20462;-72
2021/07/22 11:17:44;;;;;;;4.63;2.60;;;;;;;24.51;41.88;96622.75;5055312;28;20025;-71
2021/07/22 11:20:22;;;;;;;6.70;2.70;;;;;;;24.90;41.39;96612.94;5055081;28;20475;-70
2021/07/22 11:22:50;;;;;;;4.97;2.78;;;;;;;25.14;41.03;96619.59;5055138;28;20044;-72
2021/07/22 11:25:17;;;;;;;6.38;2.58;;;;;;;25.08;40.98;96613.81;5055117;28;20025;-71
2021/07/22 11:27:47;;;;;;;5.00;2.55;;;;;;;25.28;41.60;96618.25;5054996;28;20029;-73
2021/07/22 11:30:15;;;;;;;2.67;2.28;;;;;;;25.16;41.18;96610.41;5055073;28;20551;-70
2021/07/22 11:32:40;;;;;;;5.70;2.28;;;;;;;25.14;40.69;96599.03;5054901;28;20425;-71